createdAt,value
2019-06-04T00:02:09.029Z,271.07
2019-06-04T00:04:39.825Z,180.03
2019-06-04T00:07:20.631Z,98.33
2019-06-04T00:10:03.021Z,95.13
2019-06-04T00:12:34.011Z,95.17
2019-06-04T00:15:31.472Z,12.00
2019-06-04T00:18:06.914Z,11.60
2019-06-04T00:20:46.471Z,12.03
2019-06-04T00:23:20.398Z,18.23
2019-06-04T00:25:52.250Z,12.73
2019-06-04T00:28:24.718Z,17.53
2019-06-04T00:31:02.565Z,12.13
2019-06-04T00:33:44.222Z,12.67
2019-06-04T00:36:16.674Z,16.73
2019-06-04T00:38:47.894Z,8.57
2019-06-04T00:41:26.167Z,14.13
2019-06-04T00:44:10.442Z,16.60
2019-06-04T00:46:42.841Z,43.00
2019-06-04T00:49:19.749Z,25.93
2019-06-04T00:51:59.046Z,64.67
2019-06-04T00:54:34.315Z,356.03
2019-06-04T00:57:05.585Z,123.37
2019-06-04T00:59:39.665Z,118.53
2019-06-04T01:02:20.372Z,194.07
2019-06-04T01:05:08.279Z,222.13
2019-06-04T01:07:45.016Z,157.27
2019-06-04T01:10:15.678Z,316.10
2019-06-04T01:12:54.722Z,236.43
2019-06-04T01:15:29.392Z,546.07
2019-06-04T01:18:02.613Z,73.07
2019-06-04T01:20:50.285Z,229.23
2019-06-04T01:23:22.309Z,122.40
2019-06-04T01:25:54.729Z,114.00
2019-06-04T01:28:29.500Z,79.73
2019-06-04T01:31:02.819Z,57.53
2019-06-04T01:33:39.765Z,20.00
2019-06-04T01:36:11.920Z,13.87
2019-06-04T01:38:43.737Z,10.60
2019-06-04T01:41:15.165Z,15.07
2019-06-04T01:43:46.167Z,24.20
2019-06-04T01:46:17.012Z,49.17
2019-06-04T01:48:47.657Z,65.90
2019-06-04T01:51:18.691Z,22.40
2019-06-04T01:53:49.690Z,27.27
2019-06-04T01:56:20.990Z,30.80
2019-06-04T01:58:51.709Z,25.40
2019-06-04T02:04:26.005Z,41.23
2019-06-04T02:06:57.157Z,69.23
2019-06-04T02:09:28.192Z,164.13
2019-06-04T02:11:59.304Z,50.00
2019-06-04T02:14:30.237Z,13.27
2019-06-04T02:17:00.804Z,9.10
2019-06-04T02:19:31.662Z,7.60
2019-06-04T02:22:02.163Z,6.50
2019-06-04T02:24:33.842Z,6.17
2019-06-04T02:27:04.422Z,6.10
2019-06-04T02:29:35.126Z,6.60
2019-06-04T02:32:06.609Z,5.80
2019-06-04T02:34:37.514Z,6.17
2019-06-04T02:37:08.688Z,15.03
2019-06-04T02:39:40.615Z,8.43
2019-06-04T02:42:11.858Z,6.83
2019-06-04T02:44:42.589Z,7.97
2019-06-04T02:47:14.698Z,13.17
2019-06-04T02:49:47.430Z,16.20
2019-06-04T02:52:20.953Z,42.20
2019-06-04T02:54:54.053Z,28.07
2019-06-04T02:57:25.608Z,63.37
2019-06-04T02:59:57.284Z,35.27
2019-06-04T03:02:28.991Z,113.77
2019-06-04T03:04:59.860Z,97.43
2019-06-04T03:07:30.493Z,28.63
2019-06-04T03:10:01.261Z,37.63
2019-06-04T03:12:32.302Z,10.40
2019-06-04T03:15:02.973Z,35.80
2019-06-04T03:17:33.722Z,15.93
2019-06-04T03:20:04.729Z,28.17
2019-06-04T03:22:35.606Z,16.57
2019-06-04T03:25:06.609Z,29.03
2019-06-04T03:27:37.494Z,16.87
2019-06-04T03:30:08.831Z,141.10
2019-06-04T03:32:39.905Z,109.83
2019-06-04T03:35:10.541Z,114.90
2019-06-04T03:37:43.278Z,185.03
2019-06-04T03:40:15.055Z,52.33
2019-06-04T03:42:45.978Z,35.53
2019-06-04T03:45:17.560Z,20.00
2019-06-04T03:47:48.725Z,10.37
2019-06-04T03:50:20.786Z,11.17
2019-06-04T03:52:51.482Z,8.73
2019-06-04T03:55:23.256Z,6.23
2019-06-04T03:57:53.941Z,4.87
2019-06-04T04:00:29.544Z,5.53
2019-06-04T04:03:00.393Z,6.67
2019-06-04T04:05:39.330Z,5.23
2019-06-04T04:08:14.851Z,5.70
2019-06-04T04:10:53.549Z,6.00
2019-06-04T04:13:25.401Z,7.03
2019-06-04T04:15:56.203Z,5.33
2019-06-04T04:18:27.422Z,5.53
2019-06-04T04:21:00.494Z,6.77
2019-06-04T04:23:34.650Z,37.13
2019-06-04T04:26:05.714Z,18.43
2019-06-04T04:28:36.595Z,10.93
2019-06-04T04:31:17.731Z,21.33
2019-06-04T04:33:50.322Z,7.13
2019-06-04T04:36:23.550Z,24.13
2019-06-04T04:38:55.061Z,14.23
2019-06-04T04:41:29.335Z,9.23
2019-06-04T04:44:00.357Z,7.90
2019-06-04T04:46:32.940Z,11.70
2019-06-04T04:49:11.541Z,10.00
2019-06-04T04:51:43.722Z,9.83
2019-06-04T04:54:14.317Z,10.07
2019-06-04T04:56:45.107Z,10.63
2019-06-04T04:59:15.647Z,14.60
2019-06-04T05:01:46.242Z,9.03
2019-06-04T05:04:18.134Z,10.60
2019-06-04T05:06:49.908Z,11.17
2019-06-04T05:09:22.033Z,10.43
2019-06-04T05:11:53.621Z,13.13
2019-06-04T05:14:26.901Z,11.07
2019-06-04T05:16:58.751Z,12.70
2019-06-04T05:19:31.555Z,11.90
2019-06-04T05:22:03.510Z,14.77
2019-06-04T05:24:33.896Z,13.63
2019-06-04T05:27:04.564Z,14.13
2019-06-04T05:29:35.053Z,15.53
2019-06-04T05:32:05.996Z,11.10
2019-06-04T05:34:36.521Z,13.43
2019-06-04T05:37:07.260Z,16.13
2019-06-04T05:39:37.752Z,17.50
2019-06-04T05:42:08.104Z,22.83
2019-06-04T05:44:38.653Z,21.17
2019-06-04T05:47:09.272Z,25.60
2019-06-04T05:49:39.782Z,25.13
2019-06-04T05:52:10.353Z,24.33
2019-06-04T05:54:40.805Z,23.83
2019-06-04T05:57:11.202Z,23.53
2019-06-04T05:59:41.604Z,21.37
2019-06-04T06:02:12.245Z,25.27
2019-06-04T06:04:42.697Z,22.23
2019-06-04T06:07:13.784Z,17.67
2019-06-04T06:09:44.199Z,15.50
2019-06-04T06:12:14.588Z,18.27
2019-06-04T06:14:45.297Z,20.13
2019-06-04T06:17:15.755Z,18.13
2019-06-04T06:19:46.441Z,12.90
2019-06-04T06:22:16.829Z,19.13
2019-06-04T06:24:47.330Z,18.73
2019-06-04T06:27:17.748Z,14.53
2019-06-04T06:29:48.319Z,16.10
2019-06-04T06:32:18.949Z,17.17
2019-06-04T06:34:49.646Z,13.33
2019-06-04T06:37:20.181Z,19.23
2019-06-04T06:39:50.693Z,17.13
2019-06-04T06:42:21.332Z,16.00
2019-06-04T06:44:52.076Z,17.73
2019-06-04T06:47:22.597Z,17.30
2019-06-04T06:49:53.721Z,18.63
2019-06-04T06:52:24.409Z,19.40
2019-06-04T06:54:55.060Z,15.53
2019-06-04T06:57:25.824Z,18.57
2019-06-04T06:59:56.633Z,16.73
2019-06-04T07:02:27.562Z,15.07
2019-06-04T07:04:59.678Z,17.67
2019-06-04T07:07:33.207Z,13.53
2019-06-04T07:10:05.162Z,13.00
2019-06-04T07:12:38.820Z,14.73
2019-06-04T07:15:14.473Z,13.03
2019-06-04T07:17:45.838Z,12.50
2019-06-04T07:20:16.702Z,13.57
2019-06-04T07:22:47.181Z,21.03
2019-06-04T07:25:18.924Z,15.30
2019-06-04T07:27:49.675Z,11.07
2019-06-04T07:30:20.835Z,12.97
2019-06-04T07:32:53.372Z,11.70
2019-06-04T07:35:24.888Z,15.67
2019-06-04T07:38:01.867Z,12.93
2019-06-04T07:40:34.585Z,13.53
2019-06-04T07:43:12.409Z,18.60
2019-06-04T07:45:46.749Z,11.77
2019-06-04T07:48:33.032Z,14.40
2019-06-04T07:50:57.482Z,11.07
2019-06-04T07:53:28.131Z,11.03
2019-06-04T07:56:05.427Z,9.83
2019-06-04T07:58:34.436Z,13.13
2019-06-04T08:01:10.360Z,10.80
2019-06-04T08:03:43.748Z,12.67
2019-06-04T08:06:18.074Z,8.10
2019-06-04T08:08:53.063Z,15.47
2019-06-04T08:11:30.870Z,15.03
2019-06-04T08:14:04.349Z,13.50
2019-06-04T08:16:35.502Z,16.37
2019-06-04T08:19:09.797Z,14.33
2019-06-04T08:21:53.739Z,14.07
2019-06-04T08:24:16.351Z,13.53
2019-06-04T08:26:47.531Z,13.80
2019-06-04T08:29:19.877Z,13.33
2019-06-04T08:31:50.763Z,16.37
2019-06-04T08:34:21.721Z,12.90
2019-06-04T08:37:06.771Z,15.87
2019-06-04T08:39:25.637Z,13.90
2019-06-04T08:41:56.599Z,14.63
2019-06-04T08:44:27.630Z,13.53
2019-06-04T08:46:59.916Z,19.20
2019-06-04T08:49:30.776Z,14.93
2019-06-04T08:52:02.097Z,17.37
2019-06-04T08:54:32.653Z,16.50
2019-06-04T08:57:03.964Z,14.77
2019-06-04T08:59:34.702Z,15.60
2019-06-04T09:02:05.708Z,12.50
2019-06-04T09:04:38.413Z,16.97
2019-06-04T09:07:26.395Z,15.17
2019-06-04T09:09:45.601Z,11.50
2019-06-04T09:12:17.657Z,14.07
2019-06-04T09:14:50.357Z,12.37
2019-06-04T09:17:21.499Z,13.37
2019-06-04T09:19:52.583Z,12.83
2019-06-04T09:22:25.563Z,12.57
2019-06-04T09:24:59.489Z,12.17
2019-06-04T09:27:30.597Z,12.37
2019-06-04T10:02:10.310Z,9.50
2019-06-04T10:04:42.079Z,9.10
2019-06-04T10:07:13.699Z,11.60
2019-06-04T10:09:44.402Z,13.13
2019-06-04T10:12:15.573Z,7.87
2019-06-04T10:14:46.764Z,6.80
2019-06-04T10:17:18.569Z,8.97
2019-06-04T10:19:49.662Z,9.93
2019-06-04T10:22:20.830Z,6.30
2019-06-04T10:24:54.543Z,8.23
2019-06-04T10:27:27.459Z,8.47
2019-06-04T10:29:58.384Z,7.23
2019-06-04T10:32:29.514Z,7.53
2019-06-04T10:35:00.519Z,10.63
2019-06-04T10:37:33.323Z,7.63
2019-06-04T10:40:04.682Z,8.50
2019-06-04T10:42:36.081Z,5.43
2019-06-04T10:45:08.680Z,8.83
2019-06-04T10:47:40.125Z,8.50
2019-06-04T10:50:12.553Z,7.67
2019-06-04T10:52:43.569Z,6.70
2019-06-04T10:55:14.786Z,10.30
2019-06-04T10:57:45.849Z,7.03
2019-06-04T11:00:17.301Z,9.27
2019-06-04T11:02:48.265Z,7.53
2019-06-04T11:05:19.069Z,10.30
2019-06-04T11:07:50.153Z,9.57
2019-06-04T11:10:24.648Z,5.43
2019-06-04T11:12:58.835Z,7.47
2019-06-04T11:15:29.489Z,5.90
2019-06-04T11:18:00.424Z,6.07
2019-06-04T11:20:31.048Z,4.73
2019-06-04T11:23:01.844Z,7.60
2019-06-04T11:25:32.300Z,6.07
2019-06-04T11:28:02.736Z,8.87
2019-06-04T11:30:33.479Z,7.57
2019-06-04T11:33:04.385Z,6.67
2019-06-04T11:35:35.142Z,6.97
2019-06-04T11:38:06.390Z,8.00
2019-06-04T11:40:37.830Z,4.53
2019-06-04T11:43:11.946Z,7.23
2019-06-04T11:45:46.166Z,8.10
2019-06-04T11:48:22.341Z,11.73
2019-06-04T11:50:51.298Z,7.63
2019-06-04T11:53:23.814Z,12.13
2019-06-04T11:55:56.167Z,12.23
2019-06-04T11:58:30.513Z,11.10
2019-06-04T12:01:14.692Z,11.27
2019-06-04T12:03:35.191Z,12.53
2019-06-04T12:06:05.917Z,12.70
2019-06-04T12:08:36.746Z,12.10
2019-06-04T12:11:07.194Z,13.93
2019-06-04T12:13:37.999Z,11.97
2019-06-04T12:16:08.804Z,9.73
2019-06-04T12:18:39.865Z,12.13
2019-06-04T12:21:16.106Z,9.83
2019-06-04T12:23:42.887Z,15.40
2019-06-04T12:26:13.364Z,15.63
2019-06-04T12:28:44.121Z,12.53
2019-06-04T12:31:14.955Z,11.67
2019-06-04T12:33:49.653Z,13.97
2019-06-04T12:36:20.182Z,10.93
2019-06-04T12:38:54.463Z,11.07
2019-06-04T12:41:25.494Z,10.17
2019-06-04T12:44:05.813Z,10.73
2019-06-04T12:46:29.580Z,9.53
2019-06-04T12:49:02.176Z,11.70
2019-06-04T12:51:32.549Z,10.53
2019-06-04T12:54:04.331Z,8.17
2019-06-04T12:56:35.657Z,10.97
2019-06-04T12:59:06.359Z,10.77
2019-06-04T13:01:38.545Z,9.73
2019-06-04T13:04:11.675Z,9.40
2019-06-04T13:06:42.273Z,10.47
2019-06-04T13:09:13.782Z,7.37
2019-06-04T13:11:44.926Z,8.30
2019-06-04T13:14:16.517Z,8.87
2019-06-04T13:16:47.214Z,9.00
2019-06-04T13:19:18.332Z,7.17
2019-06-04T13:21:48.743Z,9.33
2019-06-04T13:24:19.549Z,7.77
2019-06-04T13:26:50.857Z,8.80
2019-06-04T13:29:21.765Z,7.63
2019-06-04T13:31:52.199Z,6.37
2019-06-04T13:34:22.964Z,7.20
2019-06-04T13:36:53.326Z,10.67
2019-06-04T13:39:29.106Z,7.53
2019-06-04T13:41:55.872Z,6.73
2019-06-04T13:44:26.596Z,7.47
2019-06-04T13:46:57.223Z,9.20
2019-06-04T13:49:34.131Z,9.57
2019-06-04T13:52:00.281Z,7.37
2019-06-04T13:54:30.725Z,9.33
2019-06-04T13:57:02.332Z,6.67
2019-06-04T13:59:32.870Z,8.43
2019-06-04T14:02:04.277Z,8.53
2019-06-04T14:04:34.976Z,6.77
2019-06-04T14:07:07.052Z,7.20
2019-06-04T14:09:40.133Z,11.40
2019-06-04T14:12:11.827Z,7.67
2019-06-04T14:14:42.427Z,8.87
2019-06-04T14:17:14.303Z,6.57
2019-06-04T14:19:49.877Z,8.77
2019-06-04T14:22:19.100Z,8.63
2019-06-04T14:25:03.187Z,6.87
2019-06-04T14:27:34.696Z,7.37
2019-06-04T14:30:06.952Z,7.50
2019-06-04T14:32:37.779Z,8.90
2019-06-04T14:35:09.520Z,8.23
2019-06-04T14:37:40.154Z,9.03
2019-06-04T14:40:25.738Z,6.83
2019-06-04T14:42:44.677Z,7.37
2019-06-04T14:45:21.006Z,6.33
2019-06-04T14:47:49.241Z,7.67
2019-06-04T14:50:20.449Z,9.53
2019-06-04T14:52:51.115Z,6.23
2019-06-04T14:55:21.924Z,8.33
2019-06-04T14:58:48.812Z,10.97
2019-06-04T15:01:25.889Z,9.07
2019-06-04T15:03:56.522Z,7.90
2019-06-04T15:06:27.117Z,6.20
2019-06-04T15:08:57.913Z,6.57
2019-06-04T15:11:41.991Z,6.80
2019-06-04T15:14:00.934Z,8.73
2019-06-04T15:16:34.609Z,10.80
2019-06-04T15:19:05.664Z,9.40
2019-06-04T15:21:36.595Z,8.77
2019-06-04T15:24:07.316Z,9.07
2019-06-04T15:26:37.709Z,8.80
2019-06-04T15:29:09.003Z,6.80
2019-06-04T15:31:39.924Z,8.90
2019-06-04T15:34:12.310Z,7.23
2019-06-04T15:36:44.314Z,8.30
2019-06-04T15:39:14.985Z,9.00
2019-06-04T15:41:46.767Z,6.43
2019-06-04T15:44:19.304Z,7.60
2019-06-04T15:46:49.861Z,7.03
2019-06-04T15:49:23.493Z,8.93
2019-06-04T15:51:52.609Z,9.67
2019-06-04T15:54:24.546Z,6.70
2019-06-04T15:56:55.308Z,6.23
2019-06-04T15:59:26.611Z,8.53
2019-06-04T16:01:57.425Z,7.33
2019-06-04T16:04:28.065Z,4.87
2019-06-04T16:06:59.939Z,8.20
2019-06-04T16:09:31.041Z,7.13
2019-06-04T16:12:07.856Z,7.53
2019-06-04T16:14:37.549Z,9.97
2019-06-04T16:17:08.255Z,7.90
2019-06-04T16:19:39.050Z,7.43
2019-06-04T16:22:11.212Z,8.87
2019-06-04T16:24:41.853Z,7.73
2019-06-04T16:27:12.352Z,9.07
2019-06-04T16:29:43.152Z,6.03
2019-06-04T16:32:13.661Z,10.60
2019-06-04T16:34:47.314Z,6.87
2019-06-04T16:37:18.723Z,10.60
2019-06-04T16:39:49.448Z,9.40
2019-06-04T16:42:27.845Z,8.67
2019-06-04T16:44:53.418Z,7.00
2019-06-04T16:47:25.265Z,7.03
2019-06-04T16:49:58.837Z,7.23
2019-06-04T16:52:31.151Z,8.47
2019-06-04T16:55:03.041Z,9.23
2019-06-04T16:57:34.122Z,7.90
2019-06-04T17:00:08.422Z,8.90
2019-06-04T17:02:39.131Z,8.57
2019-06-04T17:05:09.832Z,8.07
2019-06-04T17:07:46.624Z,7.77
2019-06-04T17:10:33.435Z,5.17
2019-06-04T17:13:10.955Z,5.53
2019-06-04T17:15:41.979Z,8.30
2019-06-04T17:18:12.862Z,7.27
2019-06-04T17:20:43.742Z,5.87
2019-06-04T17:23:14.931Z,7.33
2019-06-04T17:25:46.223Z,9.07
2019-06-04T17:28:16.952Z,7.93
2019-06-04T17:30:47.436Z,7.80
2019-06-04T17:33:18.135Z,7.47
2019-06-04T17:35:48.965Z,8.37
2019-06-04T17:38:22.751Z,9.83
2019-06-04T17:40:53.707Z,8.37
2019-06-04T17:43:25.195Z,8.70
2019-06-04T17:45:57.609Z,6.43
2019-06-04T17:48:28.436Z,8.30
2019-06-04T17:50:59.717Z,6.87
2019-06-04T17:53:34.908Z,8.20
2019-06-04T17:56:08.553Z,8.03
2019-06-04T17:58:45.813Z,5.77
2019-06-04T18:01:16.837Z,6.83
2019-06-04T18:03:47.564Z,8.50
2019-06-04T18:06:18.527Z,8.80
2019-06-04T18:08:52.153Z,7.30
2019-06-04T18:11:24.416Z,9.07
2019-06-04T18:13:56.564Z,8.80
2019-06-04T18:16:33.605Z,9.73
2019-06-04T18:19:09.937Z,8.70
2019-06-04T18:21:41.275Z,7.97
2019-06-04T18:24:12.067Z,7.93
2019-06-04T18:26:43.013Z,9.60
2019-06-04T18:29:14.271Z,9.47
2019-06-04T18:31:46.179Z,8.43
2019-06-04T18:34:22.798Z,9.90
2019-06-04T18:36:54.778Z,9.83
2019-06-04T18:39:25.505Z,8.50
2019-06-04T18:41:56.203Z,9.13
2019-06-04T18:44:30.189Z,8.43
2019-06-04T18:47:00.650Z,9.80
2019-06-04T18:49:31.110Z,7.37
2019-06-04T18:52:01.592Z,7.60
2019-06-04T18:54:33.283Z,10.70
2019-06-04T18:57:03.970Z,7.33
2019-06-04T18:59:34.400Z,10.40
2019-06-04T19:02:05.167Z,14.13
2019-06-04T19:04:36.827Z,11.53
2019-06-04T19:07:07.384Z,10.57
2019-06-04T19:09:38.947Z,9.67
2019-06-04T19:12:09.533Z,11.80
2019-06-04T19:14:39.906Z,8.53
2019-06-04T19:17:10.261Z,9.57
2019-06-04T19:19:40.809Z,13.73
2019-06-04T19:22:11.376Z,12.03
2019-06-04T19:24:42.195Z,10.37
2019-06-04T19:27:12.713Z,8.00
2019-06-04T19:29:43.269Z,9.37
2019-06-04T19:32:13.852Z,11.27
2019-06-04T19:34:45.335Z,8.47
2019-06-04T19:37:15.951Z,11.33
2019-06-04T19:39:46.900Z,9.83
2019-06-04T19:42:17.431Z,9.27
2019-06-04T19:44:47.840Z,13.43
2019-06-04T19:47:19.662Z,11.20
2019-06-04T19:49:50.004Z,9.73
2019-06-04T19:52:20.693Z,8.97
2019-06-04T19:54:51.387Z,12.37
2019-06-04T19:57:22.198Z,10.87
2019-06-04T19:59:52.802Z,10.23
2019-06-04T20:02:23.661Z,10.53
2019-06-04T20:04:54.289Z,12.73
2019-06-04T20:07:25.026Z,12.33
2019-06-04T20:09:55.750Z,11.53
2019-06-04T20:12:26.255Z,7.03
2019-06-04T20:14:56.786Z,13.43
2019-06-04T20:17:27.406Z,9.53
2019-06-04T20:20:00.451Z,11.43
2019-06-04T20:22:31.254Z,12.43
2019-06-04T20:25:03.515Z,10.90
2019-06-04T20:27:34.577Z,11.30
2019-06-04T20:30:08.818Z,14.63
2019-06-04T20:32:45.132Z,11.50
2019-06-04T20:35:17.968Z,11.40
2019-06-04T20:38:03.231Z,8.30
2019-06-04T20:40:34.582Z,11.27
2019-06-04T20:43:08.190Z,10.63
2019-06-04T20:45:39.836Z,14.07
2019-06-04T20:48:12.716Z,14.53
2019-06-04T20:50:44.834Z,14.87
2019-06-04T20:53:18.555Z,11.83
2019-06-04T20:55:51.487Z,8.60
2019-06-04T20:58:22.742Z,11.73
2019-06-04T21:00:53.727Z,13.40
2019-06-04T21:03:25.363Z,18.93
2019-06-04T21:06:01.022Z,9.87
2019-06-04T21:08:31.821Z,12.43
2019-06-04T21:11:02.398Z,12.10
2019-06-04T21:13:33.185Z,10.90
2019-06-04T21:16:06.249Z,9.33
2019-06-04T21:18:37.026Z,10.23
2019-06-04T21:21:08.095Z,9.50
2019-06-04T21:23:39.713Z,12.17
2019-06-04T21:26:10.546Z,14.27
2019-06-04T21:28:41.803Z,10.27
2019-06-04T21:31:19.718Z,15.20
2019-06-04T21:33:48.154Z,10.83
2019-06-04T21:36:19.068Z,9.87
2019-06-04T21:38:50.427Z,14.87
2019-06-04T21:41:21.629Z,14.07
2019-06-04T21:43:52.995Z,10.13
2019-06-04T21:46:23.531Z,12.40
2019-06-04T21:48:55.563Z,13.57
2019-06-04T21:51:28.446Z,14.73
2019-06-04T21:54:02.083Z,14.13
2019-06-04T21:56:31.751Z,14.03
2019-06-04T21:59:02.170Z,14.70
2019-06-04T22:01:33.378Z,10.50
2019-06-04T22:04:03.960Z,11.47
2019-06-04T22:06:35.074Z,11.83
2019-06-04T22:09:08.686Z,11.30
2019-06-04T22:11:39.738Z,11.53
2019-06-04T22:14:10.563Z,12.87
2019-06-04T22:16:41.231Z,12.70
2019-06-04T22:19:12.419Z,15.20
2019-06-04T22:21:43.159Z,13.90
2019-06-04T22:24:15.797Z,13.50
2019-06-04T22:26:46.278Z,13.67
2019-06-04T22:29:17.030Z,13.60
2019-06-04T22:31:49.586Z,13.50
2019-06-04T22:34:20.636Z,12.03
2019-06-04T22:36:53.532Z,12.53
2019-06-04T22:39:24.463Z,15.70
2019-06-04T22:41:55.450Z,13.60
2019-06-04T22:44:26.126Z,10.43
2019-06-04T22:46:58.230Z,13.47
2019-06-04T22:49:28.781Z,11.50
2019-06-04T22:52:00.202Z,11.07
2019-06-04T22:54:32.853Z,14.37
2019-06-04T22:57:03.629Z,12.53
2019-06-04T22:59:34.143Z,13.90
2019-06-04T23:02:04.739Z,11.73
2019-06-04T23:04:35.685Z,12.67
2019-06-04T23:07:06.471Z,10.07
2019-06-04T23:09:37.669Z,15.83
2019-06-04T23:12:08.494Z,16.40
2019-06-04T23:14:39.166Z,11.27
2019-06-04T23:17:09.717Z,13.60
2019-06-04T23:19:40.257Z,13.50
2019-06-04T23:22:10.952Z,13.07
2019-06-04T23:24:42.185Z,10.60
2019-06-04T23:27:12.910Z,9.27
2019-06-04T23:29:43.687Z,13.27
2019-06-04T23:32:14.366Z,12.57
2019-06-04T23:34:45.222Z,14.47
2019-06-04T23:37:15.879Z,12.63
2019-06-04T23:39:46.615Z,10.00
2019-06-04T23:42:17.366Z,18.17
2019-06-04T23:44:47.860Z,13.77
2019-06-04T23:47:19.342Z,13.73
2019-06-04T23:49:50.000Z,15.23
2019-06-04T23:52:20.597Z,17.47
2019-06-04T23:54:51.113Z,11.17
2019-06-04T23:57:21.859Z,14.67
2019-06-04T23:59:52.449Z,13.70
